Tipton, Wyoming
Current Conditions -  °F | °C
As of 1:53 AM on Wednesday 22 Oct 2014 (Local Time) from KRWL Reporting Station
Moderate Rain Moderate Rain  
Wind Chill: 33°   Ceiling: 3700
Heat Index: 41°   Visibility: 6mi
Dew Point: 34°   Wind: 15mph
Humidity: 76%   Direction: 260°W
Pressure: 30.1"   Gusts: NA
Location:  41.6289°N, 108.096°W
Report Text: KRWL 220753Z AUTO 26013KT 6SM RA BKN037 OVC046 05/01 A3010 RMK AO2 PK WND 24026/0739 RAB39 SLP134 P0002 T00500011
Loading
Personal Weather Stations






























Interactive Weather Map
Tropical Storm Tracking
New forecast layout! Learn more

10-Day Weather Forecast

Advertisements
Track Severe Weather on mobile